< < Back
Terminal Aerodrome Forecast


Current Version              Previous Versions:   1  2  3  4  5  6  7  8  9  

Terminal Aerodrome Forecast

054
FTUS44 KHUN 270522
TAFHSV
TAF
KHSV 270522Z 2706/2806 30010KT P6SM SCT040
     FM271200 31010KT P6SM FEW010 OVC030
     FM272100 33005KT P6SM SCT030=

Latest METAR

927
SAUS80 KWBC 262200 RRG
MTRHSV
METAR KHSV 272153Z 33009KT 10SM OVC040 06/M02 A3041 RMK AO2 SLP300
T00561022


USA.gov is the U.S. government's official web portal to all federal, state and local government web resources and services.